US-0123 weather

Fighting Creek Farm Airport
Powhatan, Virginia, United States

Public forecast

Using degrees Fahrenheit for public forecast. Weather courtesy of forecast.io.

METAR (pilot weather report)

Closest report is Chesterfield County Airport, 19.7 nm (36.5 km) ESE. Retrieved 2019/07/18 17:56 UTC (40 minutes ago):

KFCI 181756Z AUTO VRB06KT 10SM FEW043 34/23 A2991 RMK AO2 SLP135 T03390233 10339 20261 58010

TAF (pilot weather forecast)

Closest forecast is Richmond International Airport, 28.3 nm (52.4 km) E. Retrieved 2019/07/18 18:22 UTC (14 minutes ago):

TAF KRIC 181720Z 1818/1918 22010G18KT P6SM SCT040 BKN100 FM182200 23006KT P6SM VCTS BKN040CB FM190100 21004KT P6SM BKN100 FM191000 VRB03KT P6SM SCT050